Terminal Aerodrome Forecast
Issued by NWS

Home | Current Version | Previous Version | Text Only | Print | Product List | Glossary On
Versions: 1 2 3 4 5 6 7 8 9 10 11 12 13 14 15
145
FTUS42 KTBW 010536
TAFPGD
TAF
KPGD 010536Z 0106/0206 11005KT P6SM SCT250
     FM011500 13010KT P6SM SCT250
     FM011800 17008KT P6SM SCT040 SCT250
     FM012000 20008KT P6SM SCT035 SCT250
     FM020200 12005KT P6SM FEW025 SCT250=

USA.gov is the U.S. government's official web portal to all federal, state and local government web resources and services.